Time;durP1;ratioP1;P1;durP2;ratioP2;P2;SDS_P1;SDS_P2;PMS_P1;PMS_P2;Temp;Humidity;BMP_temperature;BMP_pressure;BME280_temperature;BME280_humidity;BME280_pressure;Samples;Min_cycle;Max_cycle;Signal;HPM_P1;HPM_P2
2021/01/17 00:00:16;;;;;;;;;;;;;;;20.14;32.85;100532.16;5038675;28;748;-52
2021/01/17 00:02:45;;;;;;;;;;;;;;;19.80;33.36;100544.34;5037596;28;1981;-57
2021/01/17 00:05:11;;;;;;;;;;;;;;;19.94;33.17;100540.81;5038668;28;767;-57
2021/01/17 00:07:37;;;;;;;;;;;;;;;20.92;31.41;100550.03;5038315;28;1074;-48
2021/01/17 00:10:04;;;;;;;;;;;;;;;20.44;32.10;100546.53;5038597;28;755;-55
2021/01/17 00:12:30;;;;;;;;;;;;;;;20.12;32.77;100550.16;5038076;28;867;-57
2021/01/17 00:14:55;;;;;;;;;;;;;;;19.56;33.76;100565.63;5038420;28;783;-52
2021/01/17 00:17:20;;;;;;;;;;;;;;;20.37;32.46;100570.97;5042769;28;1191;-54
2021/01/17 00:19:46;;;;;;;;;;;;;;;20.98;31.24;100568.16;5057794;28;772;-52
2021/01/17 00:22:11;;;;;;;;;;;;;;;20.38;32.56;100575.34;5053265;28;1984;-57
2021/01/17 00:24:37;;;;;;;;;;;;;;;19.97;33.06;100571.38;5038197;28;1191;-52
2021/01/17 00:27:02;;;;;;;;;;;;;;;19.70;33.67;100587.78;5038004;28;808;-51
2021/01/17 00:29:28;;;;;;;;;;;;;;;20.66;31.86;100578.97;5038101;28;831;-55
2021/01/17 00:31:53;;;;;;;;;;;;;;;21.22;30.87;100586.44;5038232;28;794;-51
2021/01/17 00:34:19;;;;;;;;;;;;;;;21.06;31.16;100588.72;5037851;28;779;-55
2021/01/17 00:36:44;;;;;;;;;;;;;;;20.58;32.20;100600.94;5037988;28;947;-52
2021/01/17 00:39:09;;;;;;;;;;;;;;;20.11;32.74;100612.81;5038050;28;728;-54
2021/01/17 00:41:35;;;;;;;;;;;;;;;19.54;33.87;100618.34;5037661;28;803;-53
2021/01/17 00:44:00;;;;;;;;;;;;;;;19.80;33.53;100621.59;5037919;28;1963;-53
2021/01/17 00:46:26;;;;;;;;;;;;;;;20.69;31.91;100621.75;5037963;28;775;-56
2021/01/17 00:48:52;;;;;;;;;;;;;;;20.61;31.79;100616.94;5037621;28;759;-58
2021/01/17 00:51:19;;;;;;;;;;;;;;;20.20;32.70;100617.66;5037474;28;784;-55
2021/01/17 00:53:45;;;;;;;;;;;;;;;19.82;33.59;100608.31;5019871;28;960;-55
2021/01/17 00:56:11;;;;;;;;;;;;;;;19.89;33.32;100618.16;5019747;28;1230;-56
2021/01/17 00:58:37;;;;;;;;;;;;;;;20.67;31.97;100615.72;5037429;28;783;-53
2021/01/17 01:01:07;;;;;;;;;;;;;;;20.69;31.68;100619.00;5019755;28;1187;-56
2021/01/17 01:03:36;;;;;;;;;;;;;;;20.12;32.89;100617.22;5019557;28;1910;-57
2021/01/17 01:06:01;;;;;;;;;;;;;;;19.82;33.48;100621.28;5037444;28;751;-57
2021/01/17 01:08:27;;;;;;;;;;;;;;;19.61;33.89;100618.78;5037226;28;966;-56
2021/01/17 01:10:52;;;;;;;;;;;;;;;20.44;32.30;100607.28;5037100;28;819;-56
2021/01/17 01:13:18;;;;;;;;;;;;;;;20.77;31.62;100607.25;5036960;28;760;-56
2021/01/17 01:15:43;;;;;;;;;;;;;;;20.39;32.46;100609.31;5037315;28;1076;-57
2021/01/17 01:18:08;;;;;;;;;;;;;;;20.01;32.94;100615.75;5048331;28;1167;-54
2021/01/17 01:20:34;;;;;;;;;;;;;;;19.85;33.45;100622.63;5057120;28;855;-55
2021/01/17 01:22:59;;;;;;;;;;;;;;;20.63;31.83;100615.50;5045554;28;1910;-56
2021/01/17 01:25:25;;;;;;;;;;;;;;;21.03;31.27;100601.22;5036673;28;863;-54
2021/01/17 01:27:50;;;;;;;;;;;;;;;20.22;32.60;100613.47;5037395;28;819;-54
2021/01/17 01:30:16;;;;;;;;;;;;;;;20.02;32.79;100611.03;5037067;28;780;-52
2021/01/17 01:32:41;;;;;;;;;;;;;;;19.37;34.21;100616.09;5036074;28;780;-57
2021/01/17 01:35:07;;;;;;;;;;;;;;;20.32;32.49;100616.03;5037024;28;819;-48
2021/01/17 01:37:36;;;;;;;;;;;;;;;21.00;31.30;100619.25;5036518;28;935;-52
2021/01/17 01:40:03;;;;;;;;;;;;;;;20.20;32.31;100614.88;5036439;28;776;-56
2021/01/17 01:42:28;;;;;;;;;;;;;;;20.08;32.69;100621.69;5036287;28;1906;-58
2021/01/17 01:44:54;;;;;;;;;;;;;;;19.46;33.82;100621.75;5036926;28;736;-57
2021/01/17 01:47:26;;;;;;;;;;;;;;;19.82;33.39;100627.63;5036602;28;799;-57
2021/01/17 01:49:52;;;;;;;;;;;;;;;20.74;31.91;100621.69;5018990;28;1060;-56
2021/01/17 01:52:17;;;;;;;;;;;;;;;20.72;31.52;100626.69;5036227;28;939;-53
2021/01/17 01:54:42;;;;;;;;;;;;;;;20.20;32.52;100620.41;5036693;28;802;-47
2021/01/17 01:57:08;;;;;;;;;;;;;;;19.69;33.30;100620.06;5036138;28;756;-53
2021/01/17 01:59:33;;;;;;;;;;;;;;;19.78;33.30;100622.97;5036651;28;506;-49
2021/01/17 02:01:59;;;;;;;;;;;;;;;20.58;32.03;100631.34;5036278;28;822;-54
2021/01/17 02:04:24;;;;;;;;;;;;;;;20.91;31.32;100629.34;5018046;28;2068;-51
2021/01/17 02:07:16;;;;;;;;;;;;;;;20.21;32.32;100617.34;5035804;28;1145;-47
2021/01/17 02:09:41;;;;;;;;;;;;;;;19.77;33.11;100633.19;5012689;28;1017;-53
2021/01/17 02:12:22;;;;;;;;;;;;;;;19.26;34.19;100631.13;5018674;28;788;-55
2021/01/17 02:14:51;;;;;;;;;;;;;;;20.40;32.43;100633.88;5036488;28;756;-54
2021/01/17 02:17:20;;;;;;;;;;;;;;;20.85;31.35;100638.88;5022206;28;1152;-51
2021/01/17 02:19:52;;;;;;;;;;;;;;;20.22;32.43;100624.50;5056426;28;751;-46
2021/01/17 02:22:17;;;;;;;;;;;;;;;19.91;33.01;100643.50;5038080;28;1914;-47
2021/01/17 02:24:43;;;;;;;;;;;;;;;19.34;34.12;100647.03;5055743;28;1278;-55
2021/01/17 02:27:08;;;;;;;;;;;;;;;20.21;32.45;100635.88;5059600;28;859;-55
2021/01/17 02:29:33;;;;;;;;;;;;;;;21.00;31.24;100646.06;5060306;28;871;-54
2021/01/17 02:31:59;;;;;;;;;;;;;;;20.44;32.00;100640.44;5042038;28;768;-54
2021/01/17 02:34:25;;;;;;;;;;;;;;;20.25;32.42;100642.41;5060344;28;863;-57
2021/01/17 02:36:52;;;;;;;;;;;;;;;19.74;33.03;100644.84;5058751;28;951;-53
2021/01/17 02:39:17;;;;;;;;;;;;;;;19.65;33.43;100652.94;5022139;28;832;-53
2021/01/17 02:41:54;;;;;;;;;;;;;;;20.64;31.61;100660.53;5040166;28;768;-52
2021/01/17 02:44:20;;;;;;;;;;;;;;;20.81;31.10;100658.00;5039991;28;1918;-51
2021/01/17 02:46:45;;;;;;;;;;;;;;;20.14;32.34;100670.19;5040091;28;736;-48
2021/01/17 02:49:11;;;;;;;;;;;;;;;20.03;32.53;100662.38;5040382;28;862;-57
2021/01/17 02:51:36;;;;;;;;;;;;;;;19.63;33.68;100666.22;5040108;28;768;-55
2021/01/17 02:54:04;;;;;;;;;;;;;;;20.42;31.98;100680.53;5041238;28;995;-48
2021/01/17 02:56:30;;;;;;;;;;;;;;;21.01;31.03;100686.38;5059989;28;855;-49
2021/01/17 02:58:55;;;;;;;;;;;;;;;20.24;32.24;100688.53;5041921;28;855;-52
2021/01/17 03:01:21;;;;;;;;;;;;;;;19.98;32.83;100688.13;5059778;28;863;-53
2021/01/17 03:03:47;;;;;;;;;;;;;;;19.83;32.95;100681.69;5059475;28;1980;-57
2021/01/17 03:06:12;;;;;;;;;;;;;;;20.79;31.62;100687.91;5042096;28;743;-54
2021/01/17 03:08:38;;;;;;;;;;;;;;;20.47;31.90;100695.06;5025239;28;971;-58
2021/01/17 03:11:04;;;;;;;;;;;;;;;20.12;32.50;100699.22;5039415;28;851;-57
2021/01/17 03:13:29;;;;;;;;;;;;;;;19.77;33.03;100709.63;5039493;28;840;-57
2021/01/17 03:15:55;;;;;;;;;;;;;;;19.60;33.69;100713.72;5039653;28;792;-58
2021/01/17 03:18:20;;;;;;;;;;;;;;;20.44;32.12;100717.75;5051690;28;1195;-54
2021/01/17 03:20:45;;;;;;;;;;;;;;;20.75;31.25;100699.84;5059443;28;909;-51
2021/01/17 03:23:11;;;;;;;;;;;;;;;20.03;32.61;100706.53;5046245;28;1985;-56
2021/01/17 03:25:36;;;;;;;;;;;;;;;19.85;33.01;100706.22;5038891;28;756;-57
2021/01/17 03:28:02;;;;;;;;;;;;;;;19.73;33.38;100709.41;5039475;28;863;-58
2021/01/17 03:30:27;;;;;;;;;;;;;;;20.62;31.71;100713.31;5039714;28;850;-57
2021/01/17 03:32:53;;;;;;;;;;;;;;;20.67;31.36;100712.41;5038988;28;760;-50
2021/01/17 03:35:18;;;;;;;;;;;;;;;20.26;32.05;100715.81;5039277;28;824;-53
2021/01/17 03:37:43;;;;;;;;;;;;;;;20.02;32.31;100716.75;5037437;28;936;-58
2021/01/17 03:40:09;;;;;;;;;;;;;;;19.34;33.72;100724.22;5039100;28;828;-58
2021/01/17 03:42:35;;;;;;;;;;;;;;;20.11;32.58;100727.94;5039040;28;1909;-59
2021/01/17 03:45:00;;;;;;;;;;;;;;;20.88;31.33;100720.38;5039310;28;819;-59
2021/01/17 03:47:26;;;;;;;;;;;;;;;20.09;32.36;100722.72;5038681;28;744;-55
2021/01/17 03:49:51;;;;;;;;;;;;;;;20.32;31.96;100728.44;5039041;28;915;-58
2021/01/17 03:52:16;;;;;;;;;;;;;;;19.59;33.30;100716.75;5038572;28;1023;-52
2021/01/17 03:54:42;;;;;;;;;;;;;;;20.16;32.48;100720.41;5038576;28;814;-54
2021/01/17 03:57:07;;;;;;;;;;;;;;;20.95;31.14;100720.78;5038882;28;768;-54
2021/01/17 03:59:33;;;;;;;;;;;;;;;20.67;31.75;100721.53;5038565;28;780;-55
2021/01/17 04:01:58;;;;;;;;;;;;;;;20.58;31.81;100716.97;5038379;28;807;-57
2021/01/17 04:04:24;;;;;;;;;;;;;;;19.90;32.97;100725.47;5038974;28;1910;-57
2021/01/17 04:06:49;;;;;;;;;;;;;;;19.91;32.96;100718.84;5038216;28;1018;-57
2021/01/17 04:09:16;;;;;;;;;;;;;;;20.77;31.35;100720.53;5038398;28;752;-59
2021/01/17 04:11:41;;;;;;;;;;;;;;;20.72;31.56;100723.41;5038514;28;755;-60
2021/01/17 04:14:06;;;;;;;;;;;;;;;20.50;31.78;100735.06;5038336;28;736;-46
2021/01/17 04:16:32;;;;;;;;;;;;;;;20.04;32.73;100731.06;5038207;28;767;-54
2021/01/17 04:18:57;;;;;;;;;;;;;;;20.10;32.64;100731.81;5056055;28;1250;-49
2021/01/17 04:21:23;;;;;;;;;;;;;;;20.85;31.16;100727.31;5058111;28;1116;-54
2021/01/17 04:23:48;;;;;;;;;;;;;;;20.61;31.62;100730.22;5039747;28;1977;-54
2021/01/17 04:26:16;;;;;;;;;;;;;;;20.43;32.00;100729.13;5038292;28;771;-53
2021/01/17 04:28:42;;;;;;;;;;;;;;;19.72;33.22;100729.81;5038230;28;832;-46
2021/01/17 04:31:07;;;;;;;;;;;;;;;19.59;33.39;100725.84;5037825;28;816;-49
2021/01/17 04:33:33;;;;;;;;;;;;;;;20.55;31.78;100728.63;5037990;28;752;-59
2021/01/17 04:35:58;;;;;;;;;;;;;;;20.35;31.75;100734.19;5038132;28;787;-48
2021/01/17 04:38:24;;;;;;;;;;;;;;;20.14;32.35;100730.91;5037670;28;1014;-48
2021/01/17 04:40:49;;;;;;;;;;;;;;;19.88;32.54;100726.88;5037930;28;791;-51
2021/01/17 04:43:35;;;;;;;;;;;;;;;19.80;33.15;100731.94;5037913;28;1913;-52
2021/01/17 04:46:01;;;;;;;;;;;;;;;20.66;31.30;100736.47;5037594;28;808;-57
2021/01/17 04:48:27;;;;;;;;;;;;;;;20.63;31.29;100747.28;5037559;28;791;-48
2021/01/17 04:50:55;;;;;;;;;;;;;;;20.43;31.59;100742.94;5037918;28;736;-56
2021/01/17 04:53:20;;;;;;;;;;;;;;;19.93;32.72;100748.91;5019270;28;956;-55
2021/01/17 04:55:45;;;;;;;;;;;;;;;19.68;32.99;100742.56;5037727;28;848;-46
2021/01/17 04:58:15;;;;;;;;;;;;;;;20.48;31.56;100743.66;5032253;28;1323;-46
2021/01/17 05:00:41;;;;;;;;;;;;;;;21.07;30.39;100734.94;5042985;28;1130;-49
2021/01/17 05:03:18;;;;;;;;;;;;;;;20.45;31.51;100747.00;5065495;28;1967;-47
2021/01/17 05:06:04;;;;;;;;;;;;;;;20.35;31.73;100747.19;5071283;28;1258;-54
2021/01/17 05:08:30;;;;;;;;;;;;;;;19.37;33.59;100756.72;5038737;28;1695;-56
2021/01/17 05:10:59;;;;;;;;;;;;;;;20.00;32.60;100757.63;5037523;28;829;-55
2021/01/17 05:13:25;;;;;;;;;;;;;;;20.90;31.14;100751.28;5037327;28;860;-55
2021/01/17 05:15:51;;;;;;;;;;;;;;;20.42;31.58;100761.41;5019868;28;1006;-58
2021/01/17 05:18:17;;;;;;;;;;;;;;;20.29;31.98;100759.44;5031814;28;1148;-58
2021/01/17 05:20:42;;;;;;;;;;;;;;;19.91;32.32;100753.88;5035936;28;903;-57
2021/01/17 05:23:09;;;;;;;;;;;;;;;19.59;32.95;100761.72;5036969;28;1984;-56
2021/01/17 05:25:35;;;;;;;;;;;;;;;20.57;31.35;100765.88;5056907;28;839;-58
2021/01/17 05:28:00;;;;;;;;;;;;;;;20.58;31.19;100769.47;5056740;28;787;-51
2021/01/17 05:30:25;;;;;;;;;;;;;;;20.24;32.05;100763.06;5056598;28;823;-53
2021/01/17 05:32:52;;;;;;;;;;;;;;;19.86;32.59;100763.06;5056787;28;867;-51
2021/01/17 05:35:18;;;;;;;;;;;;;;;19.67;32.63;100765.75;5056576;28;895;-51
2021/01/17 05:37:47;;;;;;;;;;;;;;;20.42;31.54;100761.41;5047195;28;1025;-53
2021/01/17 05:40:12;;;;;;;;;;;;;;;20.55;31.30;100764.53;5019113;28;990;-57
2021/01/17 05:42:41;;;;;;;;;;;;;;;20.13;31.91;100759.66;5036698;28;1910;-46
2021/01/17 05:45:16;;;;;;;;;;;;;;;19.73;32.51;100759.06;5036473;28;846;-48
2021/01/17 05:47:42;;;;;;;;;;;;;;;19.61;32.94;100761.41;5036551;28;946;-57
2021/01/17 05:50:08;;;;;;;;;;;;;;;20.40;31.68;100760.91;5036539;28;791;-58
2021/01/17 05:52:34;;;;;;;;;;;;;;;20.73;30.78;100766.47;5036163;28;1002;-47
2021/01/17 05:55:00;;;;;;;;;;;;;;;20.35;31.43;100767.31;5018955;28;819;-54
2021/01/17 05:57:25;;;;;;;;;;;;;;;20.14;31.82;100768.75;5036611;28;764;-53
2021/01/17 05:59:54;;;;;;;;;;;;;;;19.38;33.32;100772.16;5018419;28;817;-57
2021/01/17 06:02:22;;;;;;;;;;;;;;;19.84;32.54;100770.81;5035324;28;1918;-52
2021/01/17 06:04:49;;;;;;;;;;;;;;;20.65;31.04;100767.13;5036702;28;752;-50
2021/01/17 06:07:15;;;;;;;;;;;;;;;20.33;31.31;100771.53;5035799;28;956;-54
2021/01/17 06:09:40;;;;;;;;;;;;;;;20.02;31.96;100765.59;5036385;28;764;-49
2021/01/17 06:12:06;;;;;;;;;;;;;;;19.60;32.64;100782.66;5018838;28;828;-48
2021/01/17 06:14:31;;;;;;;;;;;;;;;20.05;32.05;100776.88;5036018;28;767;-51
2021/01/17 06:16:57;;;;;;;;;;;;;;;20.72;30.69;100775.91;5037662;28;1151;-49
2021/01/17 06:19:29;;;;;;;;;;;;;;;20.22;31.46;100781.06;5056391;28;823;-53
2021/01/17 06:21:54;;;;;;;;;;;;;;;20.11;31.85;100780.41;5053347;28;967;-54
2021/01/17 06:24:31;;;;;;;;;;;;;;;19.61;32.55;100789.81;5018590;28;1976;-53
2021/01/17 06:26:56;;;;;;;;;;;;;;;19.93;32.09;100780.06;5018594;28;878;-50
2021/01/17 06:29:22;;;;;;;;;;;;;;;20.70;30.64;100797.47;5035912;28;855;-47
2021/01/17 06:31:48;;;;;;;;;;;;;;;20.28;31.50;100796.44;5018610;28;1453;-49
2021/01/17 06:34:14;;;;;;;;;;;;;;;20.10;31.83;100804.41;5036318;28;819;-49
2021/01/17 06:36:40;;;;;;;;;;;;;;;19.54;32.81;100802.31;5036187;28;752;-50
2021/01/17 06:39:06;;;;;;;;;;;;;;;19.58;32.82;100803.38;5036229;28;764;-49
2021/01/17 06:41:35;;;;;;;;;;;;;;;20.42;31.07;100805.59;5018545;28;807;-47
2021/01/17 06:44:08;;;;;;;;;;;;;;;21.01;30.00;100814.38;5035810;28;1977;-50
2021/01/17 06:46:36;;;;;;;;;;;;;;;21.09;29.84;100815.63;5036560;28;791;-48
2021/01/17 06:49:20;;;;;;;;;;;;;;;20.26;31.19;100821.59;5036030;28;827;-57
2021/01/17 06:51:46;;;;;;;;;;;;;;;19.88;31.85;100821.53;5035562;28;1014;-54
2021/01/17 06:54:12;;;;;;;;;;;;;;;19.37;32.82;100825.66;5036042;28;795;-48
2021/01/17 06:56:37;;;;;;;;;;;;;;;20.03;31.80;100826.03;5018397;28;741;-51
2021/01/17 06:59:03;;;;;;;;;;;;;;;20.74;30.69;100831.69;5035812;28;845;-47
2021/01/17 07:01:28;;;;;;;;;;;;;;;20.28;31.30;100830.38;5035925;28;804;-56
2021/01/17 07:03:57;;;;;;;;;;;;;;;20.07;31.58;100835.38;5036177;28;1906;-53
2021/01/17 07:06:25;;;;;;;;;;;;;;;19.65;32.47;100840.50;5035733;28;740;-47
2021/01/17 07:08:52;;;;;;;;;;;;;;;19.78;32.24;100838.16;5035903;28;991;-52
2021/01/17 07:11:19;;;;;;;;;;;;;;;20.58;30.77;100844.06;5024607;28;830;-48
2021/01/17 07:13:45;;;;;;;;;;;;;;;20.16;31.42;100839.13;5058604;28;888;-49
2021/01/17 07:16:11;;;;;;;;;;;;;;;19.96;31.86;100840.22;5059466;28;736;-58
2021/01/17 07:18:37;;;;;;;;;;;;;;;19.52;32.74;100845.91;5059250;28;1155;-50
2021/01/17 07:21:02;;;;;;;;;;;;;;;19.68;32.30;100839.09;5057871;28;918;-50
2021/01/17 07:23:28;;;;;;;;;;;;;;;20.43;31.07;100840.41;5031302;28;1910;-54
2021/01/17 07:25:53;;;;;;;;;;;;;;;20.44;30.80;100844.81;5021597;28;740;-47
2021/01/17 07:28:19;;;;;;;;;;;;;;;19.97;31.95;100844.59;5021324;28;791;-53
2021/01/17 07:30:45;;;;;;;;;;;;;;;19.63;32.14;100847.47;5038915;28;740;-53
2021/01/17 07:33:11;;;;;;;;;;;;;;;19.82;32.21;100845.63;5039318;28;808;-57
2021/01/17 07:35:37;;;;;;;;;;;;;;;20.49;30.85;100861.28;5038778;28;763;-56
2021/01/17 07:38:08;;;;;;;;;;;;;;;20.11;31.26;100850.22;5038960;28;971;-46
2021/01/17 07:40:52;;;;;;;;;;;;;;;19.97;31.55;100849.31;5039121;28;822;-46
2021/01/17 07:43:19;;;;;;;;;;;;;;;19.46;32.62;100847.88;5027679;28;1914;-47
2021/01/17 07:45:44;;;;;;;;;;;;;;;19.72;32.32;100845.69;5059046;28;766;-50
2021/01/17 07:48:10;;;;;;;;;;;;;;;20.46;30.66;100842.56;5059291;28;807;-51
2021/01/17 07:50:37;;;;;;;;;;;;;;;20.35;30.73;100844.63;5058566;28;851;-51
2021/01/17 07:53:03;;;;;;;;;;;;;;;20.13;31.22;100838.88;5046850;28;994;-46
2021/01/17 07:55:28;;;;;;;;;;;;;;;19.85;31.75;100854.41;5021256;28;752;-51
2021/01/17 07:57:54;;;;;;;;;;;;;;;19.34;32.74;100842.78;5038477;28;776;-49
2021/01/17 08:00:25;;;;;;;;;;;;;;;20.24;31.02;100840.38;5020878;28;792;-56
2021/01/17 08:02:51;;;;;;;;;;;;;;;20.75;30.23;100838.84;5038484;28;1918;-50
2021/01/17 08:05:16;;;;;;;;;;;;;;;20.06;31.59;100839.22;5038335;28;820;-50
2021/01/17 08:07:41;;;;;;;;;;;;;;;19.78;31.96;100832.66;5038188;28;1018;-49
2021/01/17 08:10:07;;;;;;;;;;;;;;;19.46;32.64;100832.19;5038567;28;862;-46
2021/01/17 08:12:32;;;;;;;;;;;;;;;20.38;30.82;100834.94;5056444;28;833;-46
2021/01/17 08:15:13;;;;;;;;;;;;;;;20.59;30.31;100829.94;5058076;28;865;-48
2021/01/17 08:17:39;;;;;;;;;;;;;;;19.92;31.55;100838.31;5058353;28;1175;-52
2021/01/17 08:20:04;;;;;;;;;;;;;;;19.65;32.17;100835.00;5057897;28;783;-53
2021/01/17 08:22:30;;;;;;;;;;;;;;;19.22;32.94;100831.31;5050710;28;1922;-49
2021/01/17 08:24:56;;;;;;;;;;;;;;;20.09;31.29;100830.38;5037233;28;1045;-50
2021/01/17 08:27:27;;;;;;;;;;;;;;;20.76;30.03;100834.97;5037335;28;748;-57
2021/01/17 08:30:08;;;;;;;;;;;;;;;20.00;31.39;100840.44;5038581;28;772;-52
2021/01/17 08:32:36;;;;;;;;;;;;;;;19.69;31.97;100832.47;5037862;28;779;-46
2021/01/17 08:35:20;;;;;;;;;;;;;;;19.75;32.08;100834.06;5037485;28;799;-49
2021/01/17 08:38:04;;;;;;;;;;;;;;;20.58;30.41;100833.00;5037880;28;948;-51
2021/01/17 08:40:30;;;;;;;;;;;;;;;20.52;30.34;100824.81;5037540;28;808;-54
2021/01/17 08:42:55;;;;;;;;;;;;;;;19.98;31.37;100820.59;5037568;28;1918;-52
2021/01/17 08:45:21;;;;;;;;;;;;;;;19.45;32.39;100825.03;5038535;28;723;-50
2021/01/17 08:47:49;;;;;;;;;;;;;;;19.80;31.95;100825.75;5037567;28;843;-53
2021/01/17 08:50:27;;;;;;;;;;;;;;;20.59;30.46;100821.66;5043941;28;1091;-50
2021/01/17 08:52:53;;;;;;;;;;;;;;;20.65;30.32;100833.44;5028936;28;971;-50
2021/01/17 08:55:37;;;;;;;;;;;;;;;20.10;31.12;100828.44;5037078;28;812;-48
2021/01/17 08:58:03;;;;;;;;;;;;;;;19.81;31.77;100821.06;5037159;28;752;-54
2021/01/17 09:00:47;;;;;;;;;;;;;;;19.85;31.58;100827.63;5037303;28;863;-50
2021/01/17 09:03:24;;;;;;;;;;;;;;;20.55;30.40;100825.31;5037321;28;1980;-50
2021/01/17 09:06:13;;;;;;;;;;;;;;;20.59;30.21;100818.06;5037036;28;880;-49
2021/01/17 09:08:47;;;;;;;;;;;;;;;19.94;31.31;100809.31;5029019;28;1156;-50
2021/01/17 09:11:28;;;;;;;;;;;;;;;19.44;32.23;100806.00;5037086;28;839;-51
2021/01/17 09:14:12;;;;;;;;;;;;;;;20.09;31.27;100808.31;5037266;28;783;-47
2021/01/17 09:16:38;;;;;;;;;;;;;;;20.79;30.14;100806.75;5037374;28;812;-51
2021/01/17 09:19:06;;;;;;;;;;;;;;;20.15;31.10;100796.06;5055273;28;1183;-54
2021/01/17 09:21:32;;;;;;;;;;;;;;;20.06;31.12;100795.06;5056703;28;800;-57
2021/01/17 09:23:58;;;;;;;;;;;;;;;19.51;32.37;100805.66;5037641;28;1913;-56
2021/01/17 09:26:23;;;;;;;;;;;;;;;20.38;30.71;100807.31;5018945;28;848;-51
2021/01/17 09:28:48;;;;;;;;;;;;;;;20.93;29.73;100800.41;5019289;28;807;-49
2021/01/17 09:31:14;;;;;;;;;;;;;;;20.37;30.50;100791.91;5036791;28;820;-52
2021/01/17 09:33:39;;;;;;;;;;;;;;;19.85;31.71;100790.94;5019206;28;756;-49
2021/01/17 09:36:11;;;;;;;;;;;;;;;19.31;32.38;100791.00;5036523;28;777;-52
2021/01/17 09:38:36;;;;;;;;;;;;;;;20.25;30.85;100786.00;5036618;28;1007;-52
2021/01/17 09:41:02;;;;;;;;;;;;;;;20.93;29.72;100792.13;5018863;28;1461;-52
2021/01/17 09:43:27;;;;;;;;;;;;;;;20.35;30.46;100791.34;5036452;28;1914;-52
2021/01/17 09:45:53;;;;;;;;;;;;;;;20.03;31.18;100790.16;5036624;28;823;-52
2021/01/17 09:48:19;;;;;;;;;;;;;;;19.32;32.53;100787.09;5036605;28;828;-56
2021/01/17 09:50:45;;;;;;;;;;;;;;;19.79;31.77;100787.41;5036108;28;796;-55
2021/01/17 09:53:11;;;;;;;;;;;;;;;20.63;30.10;100785.97;5036524;28;951;-55
2021/01/17 09:55:40;;;;;;;;;;;;;;;20.20;30.72;100792.41;5036933;28;752;-55
2021/01/17 09:58:05;;;;;;;;;;;;;;;19.96;31.26;100779.50;5036202;28;804;-56
2021/01/17 10:00:31;;;;;;;;;;;;;;;19.22;32.47;100778.94;5036547;28;750;-57
2021/01/17 10:02:56;;;;;;;;;;;;;;;19.99;31.21;100773.38;5036462;28;1917;-51
2021/01/17 10:05:28;;;;;;;;;;;;;;;20.79;29.87;100772.75;5018326;28;749;-51
2021/01/17 10:08:00;;;;;;;;;;;;;;;20.34;30.51;100771.22;5036654;28;1014;-56
2021/01/17 10:10:25;;;;;;;;;;;;;;;19.95;31.24;100771.47;5036238;28;831;-54
2021/01/17 10:12:51;;;;;;;;;;;;;;;19.42;32.11;100772.38;5036247;28;792;-53
2021/01/17 10:15:17;;;;;;;;;;;;;;;20.05;31.37;100759.47;5036297;28;776;-51
2021/01/17 10:17:46;;;;;;;;;;;;;;;20.80;29.98;100761.41;5043425;28;1096;-53
2021/01/17 10:20:11;;;;;;;;;;;;;;;20.33;30.47;100750.25;5056127;28;771;-56
2021/01/17 10:22:37;;;;;;;;;;;;;;;19.98;31.11;100751.59;5029824;28;1918;-52
2021/01/17 10:25:02;;;;;;;;;;;;;;;19.43;32.20;100750.03;5018303;28;807;-56
2021/01/17 10:27:28;;;;;;;;;;;;;;;20.14;30.85;100752.19;5036297;28;775;-51
2021/01/17 10:29:53;;;;;;;;;;;;;;;20.82;29.70;100750.03;5036288;28;755;-55
2021/01/17 10:32:19;;;;;;;;;;;;;;;20.12;30.75;100752.50;5036142;28;816;-53
2021/01/17 10:34:45;;;;;;;;;;;;;;;19.85;31.31;100766.91;5018223;28;748;-56
2021/01/17 10:37:11;;;;;;;;;;;;;;;19.31;32.22;100755.16;5036242;28;971;-58
2021/01/17 10:39:37;;;;;;;;;;;;;;;20.16;30.88;100749.94;5035804;28;693;-57
2021/01/17 10:42:04;;;;;;;;;;;;;;;20.79;29.70;100757.00;5035604;28;843;-51
2021/01/17 10:44:29;;;;;;;;;;;;;;;20.51;30.11;100753.28;5036075;28;1903;-59
2021/01/17 10:47:02;;;;;;;;;;;;;;;20.05;31.00;100745.69;5037371;28;840;-57
2021/01/17 10:49:29;;;;;;;;;;;;;;;19.70;31.50;100743.09;5021931;28;804;-58
2021/01/17 10:51:55;;;;;;;;;;;;;;;20.06;31.12;100755.59;5039610;28;1010;-58
2021/01/17 10:54:25;;;;;;;;;;;;;;;20.77;29.84;100750.13;5039672;28;787;-58
2021/01/17 10:56:50;;;;;;;;;;;;;;;20.37;30.36;100746.88;5039970;28;746;-58
2021/01/17 10:59:17;;;;;;;;;;;;;;;19.77;31.36;100759.31;5021241;28;1334;-54
2021/01/17 11:01:46;;;;;;;;;;;;;;;19.45;31.79;100756.06;5022189;28;764;-55
2021/01/17 11:04:15;;;;;;;;;;;;;;;20.10;30.86;100757.47;5039582;28;1902;-56
2021/01/17 11:06:42;;;;;;;;;;;;;;;20.80;29.82;100757.81;5039293;28;971;-56
2021/01/17 11:09:10;;;;;;;;;;;;;;;20.52;30.05;100752.16;5021697;28;936;-56
2021/01/17 11:11:42;;;;;;;;;;;;;;;20.04;30.71;100755.91;5021734;28;824;-56
2021/01/17 11:14:08;;;;;;;;;;;;;;;19.39;31.94;100749.00;5039508;28;551;-50
2021/01/17 11:16:36;;;;;;;;;;;;;;;20.19;30.91;100746.59;5038953;28;1074;-55
2021/01/17 11:19:03;;;;;;;;;;;;;;;20.81;30.00;100757.50;5057025;28;1385;-49
2021/01/17 11:21:29;;;;;;;;;;;;;;;20.41;30.37;100746.00;5059416;28;756;-55
2021/01/17 11:23:54;;;;;;;;;;;;;;;19.97;31.36;100747.19;5046025;28;1909;-57
2021/01/17 11:26:23;;;;;;;;;;;;;;;19.29;32.31;100757.34;5058927;28;728;-50
2021/01/17 11:28:55;;;;;;;;;;;;;;;20.11;31.11;100756.34;5059277;28;870;-52
2021/01/17 11:31:21;;;;;;;;;;;;;;;20.84;29.83;100748.59;5059215;28;807;-52
2021/01/17 11:33:47;;;;;;;;;;;;;;;20.21;30.57;100747.09;5058731;28;744;-51
2021/01/17 11:36:19;;;;;;;;;;;;;;;20.05;30.99;100746.53;5059203;28;882;-57
2021/01/17 11:38:44;;;;;;;;;;;;;;;19.58;31.94;100751.78;5041984;28;1017;-56
2021/01/17 11:41:09;;;;;;;;;;;;;;;20.32;30.53;100758.81;5038995;28;756;-52
2021/01/17 11:43:35;;;;;;;;;;;;;;;20.79;29.94;100756.16;5039077;28;1910;-54
2021/01/17 11:46:04;;;;;;;;;;;;;;;20.32;30.52;100758.81;5039208;28;807;-51
2021/01/17 11:48:30;;;;;;;;;;;;;;;19.76;31.59;100757.66;5038550;28;800;-52
2021/01/17 11:50:55;;;;;;;;;;;;;;;19.60;31.72;100754.25;5038994;28;756;-54
2021/01/17 11:53:21;;;;;;;;;;;;;;;20.36;30.39;100759.88;5039278;28;959;-51
2021/01/17 11:55:49;;;;;;;;;;;;;;;20.99;29.68;100755.00;5038451;28;835;-52
2021/01/17 11:58:15;;;;;;;;;;;;;;;20.17;30.84;100757.09;5037726;28;748;-47
2021/01/17 12:00:45;;;;;;;;;;;;;;;20.04;31.02;100758.69;5038806;28;752;-52
2021/01/17 12:03:11;;;;;;;;;;;;;;;19.45;31.96;100761.59;5038353;28;1981;-53
2021/01/17 12:05:37;;;;;;;;;;;;;;;20.24;30.98;100746.50;5021054;28;1439;-50
2021/01/17 12:08:02;;;;;;;;;;;;;;;20.90;29.59;100748.50;5038577;28;1014;-49
2021/01/17 12:10:29;;;;;;;;;;;;;;;20.07;30.87;100757.25;5038276;28;756;-54
2021/01/17 12:12:54;;;;;;;;;;;;;;;19.93;31.09;100757.19;5038670;28;882;-55
2021/01/17 12:15:21;;;;;;;;;;;;;;;19.27;32.47;100751.31;5038740;28;924;-54
2021/01/17 12:17:46;;;;;;;;;;;;;;;20.14;31.03;100758.53;5028530;28;1160;-56
2021/01/17 12:20:12;;;;;;;;;;;;;;;20.81;29.91;100760.25;5058404;28;768;-56
2021/01/17 12:22:37;;;;;;;;;;;;;;;20.04;30.83;100753.16;5049680;28;1971;-56
2021/01/17 12:25:03;;;;;;;;;;;;;;;19.86;31.50;100752.00;5038675;28;896;-56
2021/01/17 12:27:28;;;;;;;;;;;;;;;19.49;31.92;100759.09;5038333;28;953;-55
2021/01/17 12:29:54;;;;;;;;;;;;;;;20.31;30.71;100758.03;5037968;28;863;-58
2021/01/17 12:32:20;;;;;;;;;;;;;;;20.94;29.72;100753.13;5019506;28;772;-58
2021/01/17 12:34:45;;;;;;;;;;;;;;;20.27;30.68;100756.13;5038000;28;939;-57
2021/01/17 12:37:10;;;;;;;;;;;;;;;20.04;30.96;100764.19;5037800;28;1018;-56
2021/01/17 12:39:37;;;;;;;;;;;;;;;19.45;32.00;100763.53;5037503;28;804;-56
2021/01/17 12:42:02;;;;;;;;;;;;;;;19.99;31.12;100761.50;5037988;28;760;-50
2021/01/17 12:44:28;;;;;;;;;;;;;;;20.76;29.97;100767.81;5037596;28;1905;-52
2021/01/17 12:46:53;;;;;;;;;;;;;;;21.24;29.18;100758.41;5037602;28;859;-54
2021/01/17 12:49:19;;;;;;;;;;;;;;;21.18;28.92;100758.50;5038266;28;713;-51
2021/01/17 12:51:44;;;;;;;;;;;;;;;20.44;30.55;100767.47;5037455;28;943;-49
2021/01/17 12:54:10;;;;;;;;;;;;;;;19.97;31.15;100772.03;5037268;28;744;-48